M I D A S
Marine Information and Data Acquisition System
Tripno 879 of the Zeeleeuw from 2005-04-07 07:15:14 to 2005-04-07 10:26:14
Back to CruiseResearch ActivitiesStationsMapUnderway DataData graphs

EquipmentUnitsComment
TimeDGPSUTC
LatitudeDGPSDM.mWGS84
LongitudeDGPSDM.mWGS84
TemperatureSBE03/SBE38deg celciusITS90
ConductivitySBE21S/mITS90
SalinitySBE21 Practical Salinity Units
ChlorophylAChelsea fluorimeterg/lCalibrated in Aceton
Missing or incorrect values are displayed as -999
Sea surface data collected by the RV Zeeleeuw from 2005-04-07 07:18:36 to 2005-04-07 10:36:32
Time Latitude Longitude Temperature Conductivity Salinity ChlorophylA
2005-04-07 07:19:42 51°13.615 2°56.028 9.2946 2.901372 25.473898 9.230443
2005-04-07 07:20:42 51°13.619 2°56.025 9.1442 2.867179 25.915257 10.342853
2005-04-07 07:21:42 51°13.646 2°55.954 8.9649 2.868443 26.048744 9.264153
2005-04-07 07:22:42 51°13.684 2°55.842 8.8269 2.902648 26.490558 9.803503
2005-04-07 07:23:42 51°13.696 2°55.74 8.7839 2.984221 27.403976 10.54511
2005-04-07 07:24:42 51°13.691 2°55.729 8.8673 2.95959 27.168986 9.97205
2005-04-07 07:25:41 51°13.742 2°55.697 8.8898 2.867498 26.200068 9.938341
2005-04-07 07:26:40 51°13.836 2°55.622 8.95 2.833086 25.812656 9.938341
2005-04-07 07:27:42 51°13.952 2°55.539 8.8597 2.818774 25.671442 9.668665
2005-04-07 07:28:41 51°14.065 2°55.459 8.7971 2.922015 26.788765 9.97205
2005-04-07 07:29:41 51°14.187 2°55.36 8.7894 2.917068 26.753643 11.421554
2005-04-07 07:30:41 51°14.297 2°55.196 8.6917 2.946329 27.08746 11.724939
2005-04-07 07:31:42 51°14.418 2°55.02 8.649 3.003486 27.718123 11.65752
2005-04-07 07:32:42 51°14.594 2°54.914 8.4472 3.085073 28.638239 12.635093
2005-04-07 07:33:42 51°14.779 2°54.829 8.3769 3.225221 30.238886 12.500255
2005-04-07 07:34:41 51°14.968 2°54.789 8.379 3.25713 30.601983 12.668802
2005-04-07 07:35:42 51°15.16 2°54.782 8.3702 3.272611 30.761676 14.017178
2005-04-07 07:36:42 51°15.347 2°54.826 8.3562 3.290409 30.95509 13.107024
2005-04-07 07:37:41 51°15.53 2°54.904 8.3375 3.290936 30.972981 12.837349
2005-04-07 07:38:42 51°15.69 2°55.058 8.3299 3.279246 30.859836 14.286853
2005-04-07 07:39:42 51°15.814 2°55.273 8.3246 3.267977 30.753261 14.050888
2005-04-07 07:40:40 51°15.932 2°55.518 8.3156 3.26882 30.772201 12.736221
2005-04-07 07:41:40 51°16.04 2°55.809 8.3025 3.259869 30.689012 12.196871
2005-04-07 07:42:41 51°16.155 2°56.117 8.3015 3.259237 30.683147 11.219298
2005-04-07 07:43:42 51°16.271 2°56.406 8.2892 3.2466 30.563681 12.129452
2005-04-07 07:44:41 51°16.379 2°56.686 8.2812 3.230277 30.406501 12.76993
2005-04-07 07:45:42 51°16.487 2°56.987 8.2566 3.231646 30.43083 10.646238
2005-04-07 07:46:42 51°16.594 2°57.291 8.2501 3.211217 30.234369 9.702375
2005-04-07 07:47:41 51°16.697 2°57.593 8.2393 3.214271 30.271205 10.106888
2005-04-07 07:48:42 51°16.805 2°57.894 8.2266 3.215535 30.29369 9.736084
2005-04-07 07:49:41 51°16.912 2°58.184 8.2246 3.204583 30.186648 9.97205
2005-04-07 07:50:40 51°17.007 2°58.479 8.2191 3.209848 30.246556 10.140597
2005-04-07 07:51:42 51°17.097 2°58.808 8.226 3.202161 30.167821 10.241725
2005-04-07 07:52:41 51°17.191 2°59.121 8.2144 3.196265 30.107767 10.477691
2005-04-07 07:53:41 51°17.297 2°59.423 8.2039 3.195317 30.105724 13.107024
2005-04-07 07:54:41 51°17.425 2°59.701 8.175 3.190894 30.071002 13.680084
2005-04-07 07:55:42 51°17.573 2°59.962 8.1489 3.187209 30.056056 13.275571
2005-04-07 07:56:42 51°17.714 3°0.22 8.1364 3.168361 29.89275 13.848631
2005-04-07 07:57:40 51°17.836 3°0.45 8.1548 3.153515 29.723734 13.34299
2005-04-07 07:58:41 51°17.891 3°0.64 8.1748 3.151198 29.68199 13.34299
2005-04-07 07:59:41 51°17.878 3°0.72 8.1767 3.142985 29.592236 13.3767
2005-04-07 08:00:41 51°17.857 3°0.757 8.1845 3.141827 29.577373 13.208153
2005-04-07 08:01:41 51°17.827 3°0.789 8.1753 3.158358 29.750957 13.039606
2005-04-07 08:02:42 51°17.79 3°0.807 8.162 3.150145 29.671724 13.039606
2005-04-07 08:03:41 51°17.757 3°0.811 8.1646 3.165518 29.838301 12.938477
2005-04-07 08:04:42 51°17.728 3°0.792 8.1596 3.168361 29.870781 13.241862
2005-04-07 08:05:42 51°17.717 3°0.766 8.1611 3.167519 29.856333 13.275571
2005-04-07 08:06:42 51°17.74 3°0.752 8.1639 3.167729 29.867024 13.34299
2005-04-07 08:07:42 51°17.763 3°0.755 8.1652 3.167624 29.862386 13.3767
2005-04-07 08:08:41 51°17.779 3°0.768 8.1676 3.158463 29.766159 13.275571
2005-04-07 08:09:42 51°17.792 3°0.785 8.1742 3.168782 29.872342 12.871059
2005-04-07 08:10:42 51°17.802 3°0.805 8.1649 3.162886 29.80732 12.668802
2005-04-07 08:11:42 51°17.81 3°0.831 8.1563 3.15541 29.735034 13.140734
2005-04-07 08:12:42 51°17.816 3°0.861 8.1543 3.159516 29.782784 12.972187
2005-04-07 08:13:42 51°17.821 3°0.89 8.1611 3.152462 29.712052 12.76993
2005-04-07 08:14:41 51°17.823 3°0.919 8.1712 3.161096 29.80208 12.601383
2005-04-07 08:15:41 51°17.827 3°0.948 8.1574 3.158463 29.774629 12.635093
2005-04-07 08:16:42 51°17.832 3°0.977 8.1634 3.16278 29.818237 12.23058
2005-04-07 08:17:42 51°17.836 3°1.004 8.1616 3.158779 29.780747 11.826067
2005-04-07 08:18:42 51°17.843 3°1.031 8.1709 3.156463 29.750241 11.286717
2005-04-07 08:19:41 51°17.85 3°1.057 8.1789 3.1592 29.773137 10.915913
2005-04-07 08:20:42 51°17.857 3°1.082 8.1779 3.149934 29.668827 10.376563
2005-04-07 08:21:41 51°17.863 3°1.108 8.191 3.151935 29.686855 10.713657
2005-04-07 08:22:42 51°17.87 3°1.135 8.1854 3.15383 29.705193 10.949623
2005-04-07 08:23:42 51°17.877 3°1.161 8.1823 3.149513 29.663034 11.354136
2005-04-07 08:24:42 51°17.885 3°1.191 8.1801 3.142038 29.585172 11.724939
2005-04-07 08:25:42 51°17.894 3°1.219 8.1905 3.159621 29.769766 11.556392
2005-04-07 08:26:41 51°17.904 3°1.25 8.1799 3.148355 29.648861 11.758648
2005-04-07 08:27:42 51°17.916 3°1.279 8.1799 3.160674 29.779329 11.792358
2005-04-07 08:28:42 51°17.927 3°1.308 8.189 3.154988 29.720076 11.65752
2005-04-07 08:29:42 51°17.938 3°1.337 8.1933 3.1413 29.573994 11.455264
2005-04-07 08:30:42 51°17.949 3°1.37 8.1841 3.145196 29.61456 11.488973
2005-04-07 08:31:42 51°17.959 3°1.405 8.1847 3.147513 29.637981 11.556392
2005-04-07 08:32:42 51°17.968 3°1.44 8.1846 3.147407 29.636885 11.556392
2005-04-07 08:33:41 51°17.998 3°1.467 8.1935 3.154357 29.710678 11.65752
2005-04-07 08:34:41 51°18.078 3°1.491 8.1892 3.154673 29.711153 11.724939
2005-04-07 08:35:42 51°18.153 3°1.58 8.202 3.147618 29.630654 11.421554
2005-04-07 08:36:42 51°18.209 3°1.688 8.2127 3.142248 29.566349 11.286717
2005-04-07 08:37:41 51°18.238 3°1.805 8.2205 3.143406 29.570701 11.286717
2005-04-07 08:38:41 51°18.267 3°1.914 8.23 3.134351 29.473724 11.421554
2005-04-07 08:39:41 51°18.288 3°2.03 8.2251 3.140668 29.53593 11.488973
2005-04-07 08:40:42 51°18.308 3°2.153 8.2282 3.138984 29.514219 11.488973
2005-04-07 08:41:41 51°18.335 3°2.262 8.2332 3.134667 29.470034 11.590101
2005-04-07 08:42:41 51°18.364 3°2.355 8.2415 3.126559 29.37812 11.219298
2005-04-07 08:43:42 51°18.401 3°2.437 8.2442 3.13056 29.413431 10.814785
2005-04-07 08:44:40 51°18.44 3°2.505 8.2505 3.126349 29.366903 10.612529
2005-04-07 08:45:42 51°18.487 3°2.566 8.2497 3.126033 29.362234 10.646238
2005-04-07 08:46:41 51°18.532 3°2.622 8.2493 3.121295 29.313726 10.848494
2005-04-07 08:47:42 51°18.579 3°2.677 8.2344 3.119294 29.295033 11.017042
2005-04-07 08:48:41 51°18.625 3°2.731 8.2344 3.119505 29.306921 11.11817
2005-04-07 08:49:42 51°18.672 3°2.785 8.231 3.123927 29.355635 11.151879
2005-04-07 08:50:42 51°18.719 3°2.839 8.2328 3.117715 29.289023 11.387845
2005-04-07 08:51:41 51°18.764 3°2.902 8.2361 3.123927 29.35008 11.387845
2005-04-07 08:52:42 51°18.806 3°2.978 8.2432 3.125928 29.366 11.151879
2005-04-07 08:53:41 51°18.848 3°3.058 8.2421 3.11761 29.281004 10.679947
2005-04-07 08:54:41 51°18.892 3°3.144 8.2322 3.120768 29.313111 10.309144
2005-04-07 08:55:41 51°18.939 3°3.219 8.2267 3.131929 29.43879 10.005759
2005-04-07 08:56:42 51°18.989 3°3.281 8.2179 3.127612 29.396012 9.938341
2005-04-07 08:57:41 51°19.037 3°3.332 8.213 3.124243 29.370033 9.904631
2005-04-07 08:58:42 51°19.084 3°3.385 8.2052 3.125717 29.391615 9.870922
2005-04-07 08:59:42 51°19.13 3°3.454 8.1947 3.131403 29.449342 9.702375
2005-04-07 09:00:41 51°19.175 3°3.56 8.2068 3.134456 29.492966 9.567537
2005-04-07 09:01:42 51°19.19 3°3.699 8.1703 3.132035 29.47126 9.230443
2005-04-07 09:02:41 51°19.202 3°3.842 8.1836 3.134141 29.506451 9.061896
2005-04-07 09:03:42 51°19.186 3°3.974 8.1772 3.141511 29.583195 8.82593
2005-04-07 09:04:42 51°19.164 3°4.063 8.2001 3.136247 29.529774 8.792221
2005-04-07 09:05:41 51°19.135 3°4.121 8.1586 3.126771 29.429733 8.85964
2005-04-07 09:06:42 51°19.098 3°4.147 8.1592 3.123717 29.410503 9.061896
2005-04-07 09:07:42 51°19.062 3°4.106 8.1353 3.119295 29.370043 9.264153
2005-04-07 09:08:42 51°19.027 3°4.048 8.1375 3.118874 29.377501 9.297862
2005-04-07 09:09:42 51°18.994 3°3.989 8.1477 3.119717 29.382091 9.39899
2005-04-07 09:10:42 51°18.957 3°3.95 8.1506 3.112768 29.302794 9.39899
2005-04-07 09:11:42 51°18.92 3°3.912 8.1626 3.105924 29.226039 9.668665
2005-04-07 09:12:42 51°18.884 3°3.879 8.1733 3.115505 29.316686 9.702375
2005-04-07 09:13:42 51°18.849 3°3.846 8.1782 3.116768 29.325661 9.634956
2005-04-07 09:14:42 51°18.814 3°3.805 8.1951 3.120664 29.362014 9.634956
2005-04-07 09:15:42 51°18.781 3°3.766 8.1882 3.120769 29.35685 9.567537
2005-04-07 09:16:41 51°18.75 3°3.719 8.1889 3.118137 29.327391 9.803503
2005-04-07 09:17:42 51°18.718 3°3.664 8.1848 3.118242 29.331959 9.837212
2005-04-07 09:18:42 51°18.689 3°3.626 8.1555 3.115189 29.300902 10.106888
2005-04-07 09:19:42 51°18.66 3°3.587 8.1764 3.115189 29.31618 10.882204
2005-04-07 09:20:42 51°18.635 3°3.544 8.1848 3.11003 29.247261 10.915913
2005-04-07 09:21:42 51°18.608 3°3.503 8.194 3.111082 29.243661 10.747366
2005-04-07 09:22:42 51°18.584 3°3.469 8.2221 3.107819 29.202834 11.050751
2005-04-07 09:23:42 51°18.555 3°3.437 8.2389 3.1214 29.327994 11.151879
2005-04-07 09:24:42 51°18.523 3°3.378 8.2603 3.115293 29.243123 10.848494
2005-04-07 09:25:42 51°18.493 3°3.322 8.2493 3.122032 29.305443 10.342853
2005-04-07 09:26:42 51°18.464 3°3.277 8.2413 3.125822 29.355883 10.106888
2005-04-07 09:27:42 51°18.441 3°3.227 8.243 3.115715 29.253025 10.54511
2005-04-07 09:28:42 51°18.414 3°3.162 8.2493 3.123085 29.328845 10.713657
2005-04-07 09:29:42 51°18.39 3°3.124 8.2741 3.126348 29.347475 10.747366
2005-04-07 09:30:42 51°18.358 3°3.081 8.2647 3.118241 29.257815 10.679947
2005-04-07 09:31:42 51°18.331 3°3.051 8.2795 3.12161 29.292767 10.54511
2005-04-07 09:32:42 51°18.307 3°3.02 8.287 3.135614 29.427673 10.477691
2005-04-07 09:33:42 51°18.291 3°2.981 8.2857 3.140036 29.470092 10.5114
2005-04-07 09:34:41 51°18.297 3°3.01 8.2676 3.130033 29.371154 10.679947
2005-04-07 09:35:42 51°18.317 3°3.082 8.2692 3.129718 29.37412 10.578819
2005-04-07 09:36:42 51°18.34 3°3.155 8.268 3.136035 29.442472 10.646238
2005-04-07 09:37:42 51°18.331 3°3.217 8.2748 3.122663 29.298847 10.915913
2005-04-07 09:38:42 51°18.317 3°3.255 8.2769 3.127928 29.359012 10.612529
2005-04-07 09:39:42 51°18.312 3°3.261 8.2825 3.140457 29.491175 10.477691
2005-04-07 09:40:42 51°18.293 3°3.232 8.2815 3.134982 29.430846 10.477691
2005-04-07 09:41:42 51°18.252 3°3.128 8.2822 3.138772 29.467415 10.781076
2005-04-07 09:42:42 51°18.196 3°2.965 8.2825 3.129823 29.37105 11.017042
2005-04-07 09:43:41 51°18.131 3°2.768 8.2708 3.135719 29.441975 11.219298
2005-04-07 09:44:42 51°18.06 3°2.544 8.2625 3.151408 29.61402 11.488973
2005-04-07 09:45:42 51°17.996 3°2.314 8.2407 3.158884 29.695945 11.927195
2005-04-07 09:46:42 51°17.931 3°2.085 8.1996 3.162359 29.753884 13.107024
2005-04-07 09:47:42 51°17.871 3°1.874 8.1711 3.178996 29.957587 13.814922
2005-04-07 09:48:42 51°17.81 3°1.656 8.184 3.178575 29.978759 14.421691
2005-04-07 09:49:41 51°17.749 3°1.44 8.2096 3.183734 30.006998 14.320563
2005-04-07 09:50:42 51°17.692 3°1.24 8.2443 3.189104 30.039532 14.286853
2005-04-07 09:51:42 51°17.634 3°1.025 8.2492 3.197949 30.116068 14.253144
2005-04-07 09:52:42 51°17.571 3°0.812 8.2517 3.189104 30.011124 13.91605
2005-04-07 09:53:42 51°17.508 3°0.58 8.2583 3.193737 30.067196 14.286853
2005-04-07 09:54:42 51°17.443 3°0.349 8.2514 3.193421 30.055376 14.219435
2005-04-07 09:55:42 51°17.379 3°0.117 8.2433 3.204583 30.178081 13.949759
2005-04-07 09:56:42 51°17.316 2°59.884 8.2511 3.211217 30.249384 14.017178
2005-04-07 09:57:42 51°17.251 2°59.653 8.2742 3.225433 30.391911 13.612665
2005-04-07 09:58:42 51°17.186 2°59.43 8.2366 3.231225 30.432909 13.848631
2005-04-07 09:59:42 51°17.117 2°59.188 8.1732 3.22059 30.372269 16.107161
2005-04-07 10:00:42 51°17.05 2°58.962 8.0789 3.222802 30.458816 17.624084
2005-04-07 10:01:41 51°16.968 2°58.749 8.0489 3.203743 30.321353 16.275708
2005-04-07 10:02:41 51°16.887 2°58.525 8.0327 3.214589 30.463256 15.904905
2005-04-07 10:03:42 51°16.805 2°58.297 8.0483 3.214905 30.469471 16.71393
2005-04-07 10:04:41 51°16.724 2°58.066 8.064 3.213431 30.43589 18.062306
2005-04-07 10:05:42 51°16.642 2°57.829 8.0796 3.223645 30.533568 18.567947
2005-04-07 10:06:40 51°16.563 2°57.608 8.0818 3.224066 30.52782 19.174717
2005-04-07 10:07:42 51°16.478 2°57.363 8.0597 3.218696 30.475874 19.714067
2005-04-07 10:08:42 51°16.396 2°57.125 8.0617 3.225541 30.561442 20.421965
2005-04-07 10:09:42 51°16.313 2°56.883 8.0849 3.226488 30.567021 21.702922
2005-04-07 10:10:42 51°16.229 2°56.642 8.1077 3.227015 30.5551 23.691777
2005-04-07 10:11:42 51°16.147 2°56.401 8.1347 3.227436 30.537012 24.534512
2005-04-07 10:12:42 51°16.071 2°56.181 8.174 3.235123 30.591397 24.804187
2005-04-07 10:13:42 51°15.975 2°55.982 8.2062 3.239335 30.602826 23.691777
2005-04-07 10:14:42 51°15.861 2°55.789 8.2301 3.247654 30.660076 22.714204
2005-04-07 10:15:42 51°15.744 2°55.605 8.2332 3.249865 30.668674 20.590512
2005-04-07 10:16:42 51°15.622 2°55.434 8.2537 3.256184 30.733991 19.444392
2005-04-07 10:17:42 51°15.498 2°55.264 8.306 3.261976 30.763243 18.163435
2005-04-07 10:18:42 51°15.373 2°55.098 8.3541 3.288936 30.998869 15.298136
2005-04-07 10:19:42 51°15.248 2°54.934 8.3705 3.313264 31.218437 16.71393
2005-04-07 10:20:42 51°15.117 2°54.786 8.3737 3.337067 31.453051 13.477828
2005-04-07 10:21:42 51°14.944 2°54.739 8.3683 3.345703 31.542573 11.960905
2005-04-07 10:22:40 51°14.788 2°54.763 8.3398 3.364978 31.756124 10.713657
2005-04-07 10:23:41 51°14.672 2°54.841 8.3553 3.379936 31.933808 11.792358
2005-04-07 10:24:41 51°14.524 2°54.888 8.3815 3.372878 31.837319 12.196871
2005-04-07 10:25:42 51°14.378 2°55.052 8.4063 3.370245 31.791013 15.365554
2005-04-07 10:26:42 51°14.257 2°55.276 8.7223 3.378776 31.867526 -0.74754
2005-04-07 10:27:40 51°14.157 2°55.393 8.805 3.378987 31.87048 -0.74754
2005-04-07 10:28:42 51°14.06 2°55.464 8.9334 3.379198 31.871183 -0.74754
2005-04-07 10:29:42 51°13.986 2°55.524 9.0533 3.379408 31.871886 -0.781249
2005-04-07 10:30:41 51°13.911 2°55.581 9.1754 3.379514 31.870736 -0.781249
2005-04-07 10:31:42 51°13.818 2°55.64 9.2799 3.379724 31.870688 -0.74754
2005-04-07 10:32:42 51°13.74 2°55.726 9.4072 3.38004 31.872492 -0.74754
2005-04-07 10:33:42 51°13.69 2°55.839 9.4889 3.380356 31.874297 -0.71383
2005-04-07 10:34:42 51°13.661 2°55.945 9.6121 3.380778 31.875701 -0.781249
2005-04-07 10:35:42 51°13.66 2°55.965 9.7225 3.381304 31.877457 -0.781249